sensor_id;sensor_type;location;lat;lon;timestamp;P1;durP1;ratioP1;P2;durP2;ratioP2
7773;SDS011;3931;42.260;23.116;2023-05-18T00:02:15;12.63;;;5.50;;
7773;SDS011;3931;42.260;23.116;2023-05-18T00:04:41;9.17;;;6.50;;
7773;SDS011;3931;42.260;23.116;2023-05-18T00:07:08;11.17;;;5.90;;
7773;SDS011;3931;42.260;23.116;2023-05-18T00:09:35;10.60;;;5.10;;
7773;SDS011;3931;42.260;23.116;2023-05-18T00:12:02;10.30;;;5.30;;
7773;SDS011;3931;42.260;23.116;2023-05-18T00:14:29;8.90;;;4.93;;
7773;SDS011;3931;42.260;23.116;2023-05-18T00:16:56;9.43;;;4.63;;
7773;SDS011;3931;42.260;23.116;2023-05-18T00:19:22;10.90;;;4.57;;
7773;SDS011;3931;42.260;23.116;2023-05-18T00:21:50;10.73;;;4.40;;
7773;SDS011;3931;42.260;23.116;2023-05-18T00:24:17;7.93;;;4.37;;
7773;SDS011;3931;42.260;23.116;2023-05-18T00:26:44;10.60;;;4.90;;
7773;SDS011;3931;42.260;23.116;2023-05-18T00:29:11;9.80;;;4.60;;
7773;SDS011;3931;42.260;23.116;2023-05-18T00:31:38;8.53;;;5.10;;
7773;SDS011;3931;42.260;23.116;2023-05-18T00:34:04;7.73;;;4.90;;
7773;SDS011;3931;42.260;23.116;2023-05-18T00:36:31;9.90;;;4.30;;
7773;SDS011;3931;42.260;23.116;2023-05-18T00:38:58;7.00;;;4.23;;
7773;SDS011;3931;42.260;23.116;2023-05-18T00:41:24;9.03;;;4.27;;
7773;SDS011;3931;42.260;23.116;2023-05-18T00:43:52;5.77;;;4.40;;
7773;SDS011;3931;42.260;23.116;2023-05-18T00:46:18;6.10;;;4.40;;
7773;SDS011;3931;42.260;23.116;2023-05-18T00:48:44;8.63;;;5.03;;
7773;SDS011;3931;42.260;23.116;2023-05-18T00:51:11;9.87;;;5.50;;
7773;SDS011;3931;42.260;23.116;2023-05-18T00:53:37;12.80;;;5.70;;
7773;SDS011;3931;42.260;23.116;2023-05-18T00:56:05;10.73;;;5.73;;
7773;SDS011;3931;42.260;23.116;2023-05-18T00:58:32;9.50;;;5.00;;
7773;SDS011;3931;42.260;23.116;2023-05-18T01:00:59;6.80;;;4.80;;
7773;SDS011;3931;42.260;23.116;2023-05-18T01:03:26;7.87;;;5.20;;
7773;SDS011;3931;42.260;23.116;2023-05-18T01:05:54;9.10;;;4.90;;
7773;SDS011;3931;42.260;23.116;2023-05-18T01:08:22;10.77;;;5.63;;
7773;SDS011;3931;42.260;23.116;2023-05-18T01:10:48;9.33;;;5.57;;
7773;SDS011;3931;42.260;23.116;2023-05-18T01:13:22;9.67;;;5.60;;
7773;SDS011;3931;42.260;23.116;2023-05-18T01:15:56;8.23;;;5.47;;
7773;SDS011;3931;42.260;23.116;2023-05-18T01:18:30;6.60;;;4.70;;
7773;SDS011;3931;42.260;23.116;2023-05-18T01:21:00;6.87;;;5.20;;
7773;SDS011;3931;42.260;23.116;2023-05-18T01:23:44;12.40;;;5.90;;
7773;SDS011;3931;42.260;23.116;2023-05-18T01:26:29;7.40;;;5.37;;
7773;SDS011;3931;42.260;23.116;2023-05-18T01:29:02;10.13;;;5.53;;
7773;SDS011;3931;42.260;23.116;2023-05-18T01:31:31;8.37;;;5.10;;
7773;SDS011;3931;42.260;23.116;2023-05-18T01:33:57;7.33;;;5.27;;
7773;SDS011;3931;42.260;23.116;2023-05-18T01:36:23;8.50;;;5.27;;
7773;SDS011;3931;42.260;23.116;2023-05-18T01:38:49;11.57;;;5.50;;
7773;SDS011;3931;42.260;23.116;2023-05-18T01:41:17;8.20;;;5.53;;
7773;SDS011;3931;42.260;23.116;2023-05-18T01:43:49;6.60;;;5.27;;
7773;SDS011;3931;42.260;23.116;2023-05-18T01:46:22;7.80;;;5.47;;
7773;SDS011;3931;42.260;23.116;2023-05-18T01:48:58;8.90;;;5.70;;
7773;SDS011;3931;42.260;23.116;2023-05-18T01:51:31;15.40;;;6.50;;
7773;SDS011;3931;42.260;23.116;2023-05-18T01:54:02;8.63;;;4.53;;
7773;SDS011;3931;42.260;23.116;2023-05-18T01:56:32;4.90;;;3.40;;
7773;SDS011;3931;42.260;23.116;2023-05-18T01:59:00;6.53;;;3.90;;
7773;SDS011;3931;42.260;23.116;2023-05-18T02:01:27;7.03;;;4.20;;
7773;SDS011;3931;42.260;23.116;2023-05-18T02:03:54;7.17;;;3.97;;
7773;SDS011;3931;42.260;23.116;2023-05-18T02:06:20;9.00;;;4.07;;
7773;SDS011;3931;42.260;23.116;2023-05-18T02:08:46;8.77;;;3.97;;
7773;SDS011;3931;42.260;23.116;2023-05-18T02:11:12;4.47;;;3.40;;
7773;SDS011;3931;42.260;23.116;2023-05-18T02:13:38;6.37;;;2.57;;
7773;SDS011;3931;42.260;23.116;2023-05-18T02:16:06;4.37;;;3.10;;
7773;SDS011;3931;42.260;23.116;2023-05-18T02:18:32;3.10;;;2.50;;
7773;SDS011;3931;42.260;23.116;2023-05-18T02:21:00;6.83;;;4.80;;
7773;SDS011;3931;42.260;23.116;2023-05-18T02:23:28;6.20;;;3.17;;
7773;SDS011;3931;42.260;23.116;2023-05-18T02:25:54;9.63;;;3.67;;
7773;SDS011;3931;42.260;23.116;2023-05-18T02:28:20;5.10;;;3.87;;
7773;SDS011;3931;42.260;23.116;2023-05-18T02:30:46;8.97;;;4.07;;
7773;SDS011;3931;42.260;23.116;2023-05-18T02:33:13;7.93;;;3.30;;
7773;SDS011;3931;42.260;23.116;2023-05-18T02:35:39;9.60;;;4.03;;
7773;SDS011;3931;42.260;23.116;2023-05-18T02:38:05;5.60;;;3.40;;
7773;SDS011;3931;42.260;23.116;2023-05-18T02:40:31;5.87;;;3.80;;
7773;SDS011;3931;42.260;23.116;2023-05-18T02:42:58;12.33;;;4.03;;
7773;SDS011;3931;42.260;23.116;2023-05-18T02:45:24;6.90;;;4.23;;
7773;SDS011;3931;42.260;23.116;2023-05-18T02:47:50;4.77;;;3.73;;
7773;SDS011;3931;42.260;23.116;2023-05-18T02:50:16;7.17;;;3.80;;
7773;SDS011;3931;42.260;23.116;2023-05-18T02:52:42;10.80;;;3.90;;
7773;SDS011;3931;42.260;23.116;2023-05-18T02:55:09;4.07;;;3.30;;
7773;SDS011;3931;42.260;23.116;2023-05-18T02:57:37;6.70;;;3.70;;
7773;SDS011;3931;42.260;23.116;2023-05-18T03:00:07;11.30;;;3.47;;
7773;SDS011;3931;42.260;23.116;2023-05-18T03:02:35;6.10;;;4.17;;
7773;SDS011;3931;42.260;23.116;2023-05-18T03:05:03;4.80;;;3.80;;
7773;SDS011;3931;42.260;23.116;2023-05-18T03:07:30;9.10;;;4.10;;
7773;SDS011;3931;42.260;23.116;2023-05-18T03:09:57;8.27;;;3.60;;
7773;SDS011;3931;42.260;23.116;2023-05-18T03:12:23;8.47;;;3.57;;
7773;SDS011;3931;42.260;23.116;2023-05-18T03:14:49;6.73;;;3.33;;
7773;SDS011;3931;42.260;23.116;2023-05-18T03:17:15;7.83;;;2.90;;
7773;SDS011;3931;42.260;23.116;2023-05-18T03:19:41;5.60;;;3.50;;
7773;SDS011;3931;42.260;23.116;2023-05-18T03:22:07;17.03;;;6.53;;
7773;SDS011;3931;42.260;23.116;2023-05-18T03:24:34;8.77;;;5.53;;
7773;SDS011;3931;42.260;23.116;2023-05-18T03:27:04;7.83;;;4.37;;
7773;SDS011;3931;42.260;23.116;2023-05-18T03:29:30;8.60;;;3.50;;
7773;SDS011;3931;42.260;23.116;2023-05-18T03:31:57;4.80;;;3.60;;
7773;SDS011;3931;42.260;23.116;2023-05-18T03:34:23;7.10;;;4.20;;
7773;SDS011;3931;42.260;23.116;2023-05-18T03:36:49;10.27;;;4.20;;
7773;SDS011;3931;42.260;23.116;2023-05-18T03:39:16;23.90;;;3.90;;
7773;SDS011;3931;42.260;23.116;2023-05-18T03:41:43;5.67;;;4.00;;
7773;SDS011;3931;42.260;23.116;2023-05-18T03:44:09;5.50;;;3.20;;
7773;SDS011;3931;42.260;23.116;2023-05-18T03:46:35;8.80;;;3.67;;
7773;SDS011;3931;42.260;23.116;2023-05-18T03:49:01;5.63;;;3.67;;
7773;SDS011;3931;42.260;23.116;2023-05-18T03:51:29;3.80;;;2.80;;
7773;SDS011;3931;42.260;23.116;2023-05-18T03:53:55;7.40;;;3.13;;
7773;SDS011;3931;42.260;23.116;2023-05-18T03:56:21;6.47;;;3.20;;
7773;SDS011;3931;42.260;23.116;2023-05-18T03:58:48;3.40;;;2.80;;
7773;SDS011;3931;42.260;23.116;2023-05-18T04:01:15;6.23;;;3.30;;
7773;SDS011;3931;42.260;23.116;2023-05-18T04:03:42;5.43;;;4.10;;
7773;SDS011;3931;42.260;23.116;2023-05-18T04:06:09;6.63;;;3.60;;
7773;SDS011;3931;42.260;23.116;2023-05-18T04:08:35;5.10;;;3.23;;
7773;SDS011;3931;42.260;23.116;2023-05-18T04:11:01;6.60;;;3.00;;
7773;SDS011;3931;42.260;23.116;2023-05-18T04:13:28;3.40;;;2.70;;
7773;SDS011;3931;42.260;23.116;2023-05-18T04:15:55;3.60;;;2.90;;
7773;SDS011;3931;42.260;23.116;2023-05-18T04:18:22;4.80;;;3.63;;
7773;SDS011;3931;42.260;23.116;2023-05-18T04:20:48;5.43;;;3.17;;
7773;SDS011;3931;42.260;23.116;2023-05-18T04:23:14;6.33;;;3.90;;
7773;SDS011;3931;42.260;23.116;2023-05-18T04:25:40;3.63;;;3.10;;
7773;SDS011;3931;42.260;23.116;2023-05-18T04:28:08;6.73;;;3.40;;
7773;SDS011;3931;42.260;23.116;2023-05-18T04:30:34;3.73;;;3.03;;
7773;SDS011;3931;42.260;23.116;2023-05-18T04:33:02;4.10;;;2.57;;
7773;SDS011;3931;42.260;23.116;2023-05-18T04:35:30;4.33;;;3.30;;
7773;SDS011;3931;42.260;23.116;2023-05-18T04:37:56;9.63;;;3.20;;
7773;SDS011;3931;42.260;23.116;2023-05-18T04:40:22;6.40;;;4.80;;
7773;SDS011;3931;42.260;23.116;2023-05-18T04:42:49;4.83;;;3.33;;
7773;SDS011;3931;42.260;23.116;2023-05-18T04:45:15;5.30;;;3.60;;
7773;SDS011;3931;42.260;23.116;2023-05-18T04:47:43;7.80;;;3.93;;
7773;SDS011;3931;42.260;23.116;2023-05-18T04:50:14;5.07;;;3.57;;
7773;SDS011;3931;42.260;23.116;2023-05-18T04:52:41;3.53;;;2.60;;
7773;SDS011;3931;42.260;23.116;2023-05-18T04:55:12;4.50;;;2.77;;
7773;SDS011;3931;42.260;23.116;2023-05-18T04:57:38;5.80;;;3.90;;
7773;SDS011;3931;42.260;23.116;2023-05-18T05:00:05;6.20;;;4.20;;
7773;SDS011;3931;42.260;23.116;2023-05-18T05:02:33;4.10;;;3.37;;
7773;SDS011;3931;42.260;23.116;2023-05-18T05:05:00;4.20;;;3.30;;
7773;SDS011;3931;42.260;23.116;2023-05-18T05:07:26;4.33;;;3.50;;
7773;SDS011;3931;42.260;23.116;2023-05-18T05:09:52;6.90;;;3.70;;
7773;SDS011;3931;42.260;23.116;2023-05-18T05:12:18;4.50;;;2.60;;
7773;SDS011;3931;42.260;23.116;2023-05-18T05:14:44;3.60;;;3.10;;
7773;SDS011;3931;42.260;23.116;2023-05-18T05:17:10;6.13;;;4.53;;
7773;SDS011;3931;42.260;23.116;2023-05-18T05:19:37;6.93;;;3.33;;
7773;SDS011;3931;42.260;23.116;2023-05-18T05:22:03;3.63;;;3.03;;
7773;SDS011;3931;42.260;23.116;2023-05-18T05:24:30;5.77;;;3.37;;
7773;SDS011;3931;42.260;23.116;2023-05-18T05:26:56;5.23;;;4.20;;
7773;SDS011;3931;42.260;23.116;2023-05-18T05:29:22;7.57;;;4.07;;
7773;SDS011;3931;42.260;23.116;2023-05-18T05:31:50;7.40;;;4.53;;
7773;SDS011;3931;42.260;23.116;2023-05-18T05:34:16;6.33;;;3.83;;
7773;SDS011;3931;42.260;23.116;2023-05-18T05:36:42;6.17;;;3.23;;
7773;SDS011;3931;42.260;23.116;2023-05-18T05:39:08;8.37;;;5.87;;
7773;SDS011;3931;42.260;23.116;2023-05-18T05:41:36;4.17;;;3.23;;
7773;SDS011;3931;42.260;23.116;2023-05-18T05:44:03;10.30;;;4.50;;
7773;SDS011;3931;42.260;23.116;2023-05-18T05:46:29;5.30;;;3.80;;
7773;SDS011;3931;42.260;23.116;2023-05-18T05:48:56;3.60;;;2.93;;
7773;SDS011;3931;42.260;23.116;2023-05-18T05:51:22;8.30;;;4.80;;
7773;SDS011;3931;42.260;23.116;2023-05-18T05:53:48;7.03;;;3.40;;
7773;SDS011;3931;42.260;23.116;2023-05-18T05:56:14;5.20;;;3.10;;
7773;SDS011;3931;42.260;23.116;2023-05-18T05:58:41;3.23;;;2.47;;
7773;SDS011;3931;42.260;23.116;2023-05-18T06:01:07;5.47;;;3.60;;
7773;SDS011;3931;42.260;23.116;2023-05-18T06:03:33;3.17;;;2.80;;
7773;SDS011;3931;42.260;23.116;2023-05-18T06:05:59;5.40;;;3.37;;
7773;SDS011;3931;42.260;23.116;2023-05-18T06:08:25;1.90;;;1.50;;
7773;SDS011;3931;42.260;23.116;2023-05-18T06:10:52;3.30;;;1.77;;
7773;SDS011;3931;42.260;23.116;2023-05-18T06:13:18;3.07;;;2.40;;
7773;SDS011;3931;42.260;23.116;2023-05-18T06:15:45;2.20;;;2.00;;
7773;SDS011;3931;42.260;23.116;2023-05-18T06:18:11;2.80;;;2.00;;
7773;SDS011;3931;42.260;23.116;2023-05-18T06:20:37;3.00;;;2.20;;
7773;SDS011;3931;42.260;23.116;2023-05-18T06:23:03;3.83;;;2.43;;
7773;SDS011;3931;42.260;23.116;2023-05-18T06:25:29;2.53;;;1.90;;
7773;SDS011;3931;42.260;23.116;2023-05-18T06:27:55;2.43;;;2.17;;
7773;SDS011;3931;42.260;23.116;2023-05-18T06:30:21;4.10;;;2.60;;
7773;SDS011;3931;42.260;23.116;2023-05-18T06:32:48;2.63;;;2.00;;
7773;SDS011;3931;42.260;23.116;2023-05-18T06:35:14;7.40;;;4.60;;
7773;SDS011;3931;42.260;23.116;2023-05-18T06:37:40;3.47;;;2.03;;
7773;SDS011;3931;42.260;23.116;2023-05-18T06:40:07;4.50;;;3.53;;
7773;SDS011;3931;42.260;23.116;2023-05-18T06:42:34;5.60;;;2.20;;
7773;SDS011;3931;42.260;23.116;2023-05-18T06:45:01;4.10;;;2.50;;
7773;SDS011;3931;42.260;23.116;2023-05-18T06:47:27;8.03;;;2.30;;
7773;SDS011;3931;42.260;23.116;2023-05-18T06:49:53;2.67;;;1.80;;
7773;SDS011;3931;42.260;23.116;2023-05-18T06:52:20;7.10;;;2.90;;
7773;SDS011;3931;42.260;23.116;2023-05-18T06:54:46;4.30;;;3.00;;
7773;SDS011;3931;42.260;23.116;2023-05-18T06:57:12;7.90;;;2.13;;
7773;SDS011;3931;42.260;23.116;2023-05-18T06:59:38;2.80;;;2.13;;
7773;SDS011;3931;42.260;23.116;2023-05-18T07:02:05;13.30;;;3.13;;
7773;SDS011;3931;42.260;23.116;2023-05-18T07:04:31;8.30;;;1.63;;
7773;SDS011;3931;42.260;23.116;2023-05-18T07:06:58;2.53;;;2.30;;
7773;SDS011;3931;42.260;23.116;2023-05-18T07:09:24;2.70;;;2.07;;
7773;SDS011;3931;42.260;23.116;2023-05-18T07:11:50;9.93;;;3.73;;
7773;SDS011;3931;42.260;23.116;2023-05-18T07:14:16;6.73;;;2.80;;
7773;SDS011;3931;42.260;23.116;2023-05-18T07:16:42;4.00;;;1.90;;
7773;SDS011;3931;42.260;23.116;2023-05-18T07:19:11;4.67;;;2.17;;
7773;SDS011;3931;42.260;23.116;2023-05-18T07:21:37;4.40;;;1.70;;
7773;SDS011;3931;42.260;23.116;2023-05-18T07:24:04;3.03;;;1.70;;
7773;SDS011;3931;42.260;23.116;2023-05-18T07:26:30;19.07;;;2.67;;
7773;SDS011;3931;42.260;23.116;2023-05-18T07:28:56;2.80;;;1.77;;
7773;SDS011;3931;42.260;23.116;2023-05-18T07:31:23;36.40;;;3.60;;
7773;SDS011;3931;42.260;23.116;2023-05-18T07:33:49;2.23;;;1.60;;
7773;SDS011;3931;42.260;23.116;2023-05-18T07:36:15;8.90;;;1.80;;
7773;SDS011;3931;42.260;23.116;2023-05-18T07:38:41;1.57;;;1.47;;
7773;SDS011;3931;42.260;23.116;2023-05-18T07:41:08;9.83;;;1.47;;
7773;SDS011;3931;42.260;23.116;2023-05-18T07:43:34;8.13;;;2.10;;
7773;SDS011;3931;42.260;23.116;2023-05-18T07:46:00;5.37;;;1.63;;
7773;SDS011;3931;42.260;23.116;2023-05-18T07:48:27;7.20;;;1.40;;
7773;SDS011;3931;42.260;23.116;2023-05-18T07:50:53;23.13;;;2.70;;
7773;SDS011;3931;42.260;23.116;2023-05-18T07:53:19;1.97;;;1.77;;
7773;SDS011;3931;42.260;23.116;2023-05-18T07:55:45;5.00;;;2.00;;
7773;SDS011;3931;42.260;23.116;2023-05-18T07:58:12;1.90;;;1.70;;
7773;SDS011;3931;42.260;23.116;2023-05-18T08:00:38;3.07;;;1.63;;
7773;SDS011;3931;42.260;23.116;2023-05-18T08:03:04;3.07;;;1.80;;
7773;SDS011;3931;42.260;23.116;2023-05-18T08:05:31;3.17;;;2.63;;
7773;SDS011;3931;42.260;23.116;2023-05-18T08:07:57;6.43;;;2.50;;
7773;SDS011;3931;42.260;23.116;2023-05-18T08:10:23;2.47;;;1.70;;
7773;SDS011;3931;42.260;23.116;2023-05-18T08:12:49;2.10;;;1.80;;
7773;SDS011;3931;42.260;23.116;2023-05-18T08:15:17;5.00;;;1.97;;
7773;SDS011;3931;42.260;23.116;2023-05-18T08:17:43;3.27;;;1.67;;
7773;SDS011;3931;42.260;23.116;2023-05-18T08:20:10;3.67;;;2.00;;
7773;SDS011;3931;42.260;23.116;2023-05-18T08:22:36;4.07;;;2.23;;
7773;SDS011;3931;42.260;23.116;2023-05-18T08:25:03;17.33;;;2.53;;
7773;SDS011;3931;42.260;23.116;2023-05-18T08:27:29;2.10;;;1.70;;
7773;SDS011;3931;42.260;23.116;2023-05-18T08:29:55;4.43;;;2.13;;
7773;SDS011;3931;42.260;23.116;2023-05-18T08:32:22;4.63;;;2.53;;
7773;SDS011;3931;42.260;23.116;2023-05-18T08:34:48;5.87;;;3.83;;
7773;SDS011;3931;42.260;23.116;2023-05-18T08:37:15;2.60;;;1.80;;
7773;SDS011;3931;42.260;23.116;2023-05-18T08:39:41;8.30;;;2.10;;
7773;SDS011;3931;42.260;23.116;2023-05-18T08:42:11;2.13;;;1.43;;
7773;SDS011;3931;42.260;23.116;2023-05-18T08:44:44;3.53;;;2.03;;
7773;SDS011;3931;42.260;23.116;2023-05-18T08:47:14;9.83;;;2.60;;
7773;SDS011;3931;42.260;23.116;2023-05-18T08:49:42;2.27;;;1.30;;
7773;SDS011;3931;42.260;23.116;2023-05-18T08:52:13;3.90;;;1.60;;
7773;SDS011;3931;42.260;23.116;2023-05-18T08:54:43;5.10;;;1.40;;
7773;SDS011;3931;42.260;23.116;2023-05-18T08:57:10;3.67;;;1.60;;
7773;SDS011;3931;42.260;23.116;2023-05-18T08:59:38;9.63;;;2.00;;
7773;SDS011;3931;42.260;23.116;2023-05-18T09:02:06;3.80;;;1.30;;
7773;SDS011;3931;42.260;23.116;2023-05-18T09:04:32;3.73;;;1.50;;
7773;SDS011;3931;42.260;23.116;2023-05-18T09:07:00;2.20;;;1.20;;
7773;SDS011;3931;42.260;23.116;2023-05-18T09:09:28;2.30;;;1.20;;
7773;SDS011;3931;42.260;23.116;2023-05-18T09:11:55;10.03;;;1.40;;
7773;SDS011;3931;42.260;23.116;2023-05-18T09:14:22;19.30;;;2.13;;
7773;SDS011;3931;42.260;23.116;2023-05-18T09:16:50;8.33;;;1.47;;
7773;SDS011;3931;42.260;23.116;2023-05-18T09:19:16;2.40;;;1.57;;
7773;SDS011;3931;42.260;23.116;2023-05-18T09:21:42;2.47;;;2.27;;
7773;SDS011;3931;42.260;23.116;2023-05-18T09:24:10;5.17;;;2.50;;
7773;SDS011;3931;42.260;23.116;2023-05-18T09:26:37;6.70;;;2.67;;
7773;SDS011;3931;42.260;23.116;2023-05-18T09:29:03;9.60;;;3.90;;
7773;SDS011;3931;42.260;23.116;2023-05-18T09:31:40;8.37;;;2.80;;
7773;SDS011;3931;42.260;23.116;2023-05-18T09:34:06;5.40;;;2.77;;
7773;SDS011;3931;42.260;23.116;2023-05-18T09:36:32;8.70;;;2.53;;
7773;SDS011;3931;42.260;23.116;2023-05-18T09:38:58;9.30;;;3.07;;
7773;SDS011;3931;42.260;23.116;2023-05-18T09:41:26;7.63;;;3.03;;
7773;SDS011;3931;42.260;23.116;2023-05-18T09:43:52;14.90;;;3.23;;
7773;SDS011;3931;42.260;23.116;2023-05-18T09:46:19;7.13;;;2.70;;
7773;SDS011;3931;42.260;23.116;2023-05-18T09:48:46;2.97;;;2.67;;
7773;SDS011;3931;42.260;23.116;2023-05-18T09:51:15;11.47;;;4.30;;
7773;SDS011;3931;42.260;23.116;2023-05-18T09:53:42;8.90;;;3.40;;
7773;SDS011;3931;42.260;23.116;2023-05-18T09:56:11;11.00;;;3.13;;
7773;SDS011;3931;42.260;23.116;2023-05-18T09:58:40;8.50;;;3.03;;
7773;SDS011;3931;42.260;23.116;2023-05-18T10:01:06;13.70;;;3.53;;
7773;SDS011;3931;42.260;23.116;2023-05-18T10:03:32;4.47;;;3.27;;
7773;SDS011;3931;42.260;23.116;2023-05-18T10:06:02;14.67;;;3.13;;
7773;SDS011;3931;42.260;23.116;2023-05-18T10:08:29;11.77;;;3.20;;
7773;SDS011;3931;42.260;23.116;2023-05-18T10:10:56;23.93;;;3.70;;
7773;SDS011;3931;42.260;23.116;2023-05-18T10:13:24;8.83;;;3.13;;
7773;SDS011;3931;42.260;23.116;2023-05-18T10:15:52;7.63;;;2.50;;
7773;SDS011;3931;42.260;23.116;2023-05-18T10:18:20;4.93;;;2.70;;
7773;SDS011;3931;42.260;23.116;2023-05-18T10:20:48;4.00;;;2.80;;
7773;SDS011;3931;42.260;23.116;2023-05-18T10:23:15;4.60;;;2.50;;
7773;SDS011;3931;42.260;23.116;2023-05-18T10:25:44;4.13;;;2.00;;
7773;SDS011;3931;42.260;23.116;2023-05-18T10:28:11;4.97;;;2.30;;
7773;SDS011;3931;42.260;23.116;2023-05-18T10:30:42;3.90;;;2.37;;
7773;SDS011;3931;42.260;23.116;2023-05-18T10:33:09;7.07;;;2.57;;
7773;SDS011;3931;42.260;23.116;2023-05-18T10:35:36;4.33;;;2.50;;
7773;SDS011;3931;42.260;23.116;2023-05-18T10:38:04;1.90;;;1.70;;
7773;SDS011;3931;42.260;23.116;2023-05-18T10:40:30;1.83;;;1.70;;
7773;SDS011;3931;42.260;23.116;2023-05-18T10:42:58;4.53;;;2.17;;
7773;SDS011;3931;42.260;23.116;2023-05-18T10:45:28;2.57;;;1.97;;
7773;SDS011;3931;42.260;23.116;2023-05-18T10:47:57;2.53;;;1.60;;
7773;SDS011;3931;42.260;23.116;2023-05-18T10:50:26;23.70;;;2.60;;
7773;SDS011;3931;42.260;23.116;2023-05-18T10:52:53;6.63;;;2.00;;
7773;SDS011;3931;42.260;23.116;2023-05-18T10:55:22;8.20;;;2.53;;
7773;SDS011;3931;42.260;23.116;2023-05-18T10:57:50;7.63;;;1.50;;
7773;SDS011;3931;42.260;23.116;2023-05-18T11:00:20;3.77;;;2.00;;
7773;SDS011;3931;42.260;23.116;2023-05-18T11:02:46;10.60;;;1.77;;
7773;SDS011;3931;42.260;23.116;2023-05-18T11:05:21;2.63;;;1.20;;
7773;SDS011;3931;42.260;23.116;2023-05-18T11:07:52;3.30;;;1.83;;
7773;SDS011;3931;42.260;23.116;2023-05-18T11:10:24;6.83;;;1.83;;
7773;SDS011;3931;42.260;23.116;2023-05-18T11:12:59;5.73;;;1.80;;
7773;SDS011;3931;42.260;23.116;2023-05-18T11:18:25;17.63;;;2.10;;
7773;SDS011;3931;42.260;23.116;2023-05-18T11:21:18;17.33;;;2.67;;
7773;SDS011;3931;42.260;23.116;2023-05-18T11:24:17;9.10;;;2.40;;
7773;SDS011;3931;42.260;23.116;2023-05-18T11:26:54;12.43;;;2.30;;
7773;SDS011;3931;42.260;23.116;2023-05-18T11:29:22;5.83;;;2.17;;
7773;SDS011;3931;42.260;23.116;2023-05-18T11:31:50;14.40;;;2.17;;
7773;SDS011;3931;42.260;23.116;2023-05-18T11:34:36;38.10;;;3.00;;
7773;SDS011;3931;42.260;23.116;2023-05-18T11:37:06;5.87;;;2.43;;
7773;SDS011;3931;42.260;23.116;2023-05-18T11:39:34;3.73;;;1.90;;
7773;SDS011;3931;42.260;23.116;2023-05-18T11:42:01;5.77;;;1.90;;
7773;SDS011;3931;42.260;23.116;2023-05-18T11:44:30;2.10;;;1.40;;
7773;SDS011;3931;42.260;23.116;2023-05-18T11:47:01;37.53;;;2.30;;
7773;SDS011;3931;42.260;23.116;2023-05-18T11:49:29;11.40;;;2.27;;
7773;SDS011;3931;42.260;23.116;2023-05-18T11:51:59;8.00;;;1.90;;
7773;SDS011;3931;42.260;23.116;2023-05-18T11:54:27;14.43;;;2.30;;
7773;SDS011;3931;42.260;23.116;2023-05-18T11:56:58;10.47;;;1.97;;
7773;SDS011;3931;42.260;23.116;2023-05-18T11:59:31;7.30;;;2.33;;
7773;SDS011;3931;42.260;23.116;2023-05-18T12:01:59;29.30;;;3.40;;
7773;SDS011;3931;42.260;23.116;2023-05-18T12:04:27;16.33;;;2.80;;
7773;SDS011;3931;42.260;23.116;2023-05-18T12:06:54;6.93;;;2.07;;
7773;SDS011;3931;42.260;23.116;2023-05-18T12:09:21;14.50;;;2.60;;
7773;SDS011;3931;42.260;23.116;2023-05-18T12:11:48;3.70;;;2.00;;
7773;SDS011;3931;42.260;23.116;2023-05-18T12:14:15;23.10;;;2.60;;
7773;SDS011;3931;42.260;23.116;2023-05-18T12:16:43;9.63;;;2.70;;
7773;SDS011;3931;42.260;23.116;2023-05-18T12:19:10;5.93;;;2.20;;
7773;SDS011;3931;42.260;23.116;2023-05-18T12:21:36;10.23;;;3.13;;
7773;SDS011;3931;42.260;23.116;2023-05-18T12:24:02;7.90;;;2.10;;
7773;SDS011;3931;42.260;23.116;2023-05-18T12:26:29;9.17;;;2.50;;
7773;SDS011;3931;42.260;23.116;2023-05-18T12:28:56;12.70;;;2.30;;
7773;SDS011;3931;42.260;23.116;2023-05-18T12:31:25;24.53;;;3.23;;
7773;SDS011;3931;42.260;23.116;2023-05-18T12:33:52;8.90;;;2.20;;
7773;SDS011;3931;42.260;23.116;2023-05-18T12:36:19;6.87;;;2.67;;
7773;SDS011;3931;42.260;23.116;2023-05-18T12:38:47;13.30;;;2.17;;
7773;SDS011;3931;42.260;23.116;2023-05-18T12:41:20;7.50;;;2.10;;
7773;SDS011;3931;42.260;23.116;2023-05-18T12:43:46;14.57;;;3.00;;
7773;SDS011;3931;42.260;23.116;2023-05-18T12:46:13;5.23;;;2.30;;
7773;SDS011;3931;42.260;23.116;2023-05-18T12:48:44;12.23;;;2.30;;
7773;SDS011;3931;42.260;23.116;2023-05-18T12:51:16;13.70;;;2.63;;
7773;SDS011;3931;42.260;23.116;2023-05-18T12:53:42;31.40;;;3.63;;
7773;SDS011;3931;42.260;23.116;2023-05-18T12:56:08;10.03;;;2.63;;
7773;SDS011;3931;42.260;23.116;2023-05-18T12:58:35;48.63;;;4.10;;
7773;SDS011;3931;42.260;23.116;2023-05-18T13:01:05;8.33;;;2.50;;
7773;SDS011;3931;42.260;23.116;2023-05-18T13:03:33;6.00;;;2.27;;
7773;SDS011;3931;42.260;23.116;2023-05-18T13:06:03;5.03;;;2.40;;
7773;SDS011;3931;42.260;23.116;2023-05-18T13:08:31;64.30;;;4.20;;
7773;SDS011;3931;42.260;23.116;2023-05-18T13:10:59;10.90;;;2.33;;
7773;SDS011;3931;42.260;23.116;2023-05-18T13:13:26;8.33;;;2.30;;
7773;SDS011;3931;42.260;23.116;2023-05-18T13:15:52;10.70;;;2.50;;
7773;SDS011;3931;42.260;23.116;2023-05-18T13:18:18;7.47;;;2.40;;
7773;SDS011;3931;42.260;23.116;2023-05-18T13:20:47;5.20;;;2.70;;
7773;SDS011;3931;42.260;23.116;2023-05-18T13:23:17;8.23;;;2.40;;
7773;SDS011;3931;42.260;23.116;2023-05-18T13:25:44;10.70;;;2.63;;
7773;SDS011;3931;42.260;23.116;2023-05-18T13:28:11;7.93;;;2.07;;
7773;SDS011;3931;42.260;23.116;2023-05-18T13:30:38;7.37;;;2.40;;
7773;SDS011;3931;42.260;23.116;2023-05-18T13:33:06;8.20;;;2.23;;
7773;SDS011;3931;42.260;23.116;2023-05-18T13:35:33;31.07;;;3.20;;
7773;SDS011;3931;42.260;23.116;2023-05-18T13:37:59;13.27;;;2.10;;
7773;SDS011;3931;42.260;23.116;2023-05-18T13:40:26;15.73;;;2.60;;
7773;SDS011;3931;42.260;23.116;2023-05-18T13:42:52;32.20;;;3.43;;
7773;SDS011;3931;42.260;23.116;2023-05-18T13:45:18;14.33;;;2.97;;
7773;SDS011;3931;42.260;23.116;2023-05-18T13:47:45;4.30;;;2.17;;
7773;SDS011;3931;42.260;23.116;2023-05-18T13:50:14;5.77;;;1.83;;
7773;SDS011;3931;42.260;23.116;2023-05-18T13:52:41;46.30;;;3.47;;
7773;SDS011;3931;42.260;23.116;2023-05-18T13:55:07;17.10;;;2.93;;
7773;SDS011;3931;42.260;23.116;2023-05-18T13:57:34;9.10;;;2.30;;
7773;SDS011;3931;42.260;23.116;2023-05-18T14:00:00;10.57;;;2.80;;
7773;SDS011;3931;42.260;23.116;2023-05-18T14:02:29;10.83;;;2.17;;
7773;SDS011;3931;42.260;23.116;2023-05-18T14:04:55;8.73;;;2.63;;
7773;SDS011;3931;42.260;23.116;2023-05-18T14:07:22;5.10;;;2.10;;
7773;SDS011;3931;42.260;23.116;2023-05-18T14:09:49;7.13;;;2.23;;
7773;SDS011;3931;42.260;23.116;2023-05-18T14:12:15;5.20;;;2.17;;
7773;SDS011;3931;42.260;23.116;2023-05-18T14:14:41;3.00;;;1.90;;
7773;SDS011;3931;42.260;23.116;2023-05-18T14:17:07;20.03;;;2.40;;
7773;SDS011;3931;42.260;23.116;2023-05-18T14:19:34;5.70;;;1.77;;
7773;SDS011;3931;42.260;23.116;2023-05-18T14:22:00;2.47;;;1.93;;
7773;SDS011;3931;42.260;23.116;2023-05-18T14:24:26;4.30;;;2.03;;
7773;SDS011;3931;42.260;23.116;2023-05-18T14:26:52;7.97;;;2.03;;
7773;SDS011;3931;42.260;23.116;2023-05-18T14:29:18;25.13;;;3.30;;
7773;SDS011;3931;42.260;23.116;2023-05-18T14:31:46;32.93;;;3.13;;
7773;SDS011;3931;42.260;23.116;2023-05-18T14:34:12;6.77;;;2.23;;
7773;SDS011;3931;42.260;23.116;2023-05-18T14:36:38;17.10;;;2.50;;
7773;SDS011;3931;42.260;23.116;2023-05-18T14:39:04;7.80;;;3.60;;
7773;SDS011;3931;42.260;23.116;2023-05-18T14:41:30;10.93;;;2.80;;
7773;SDS011;3931;42.260;23.116;2023-05-18T14:43:56;9.30;;;2.77;;
7773;SDS011;3931;42.260;23.116;2023-05-18T14:46:22;43.60;;;3.83;;
7773;SDS011;3931;42.260;23.116;2023-05-18T14:48:49;18.83;;;3.30;;
7773;SDS011;3931;42.260;23.116;2023-05-18T14:51:15;22.23;;;2.37;;
7773;SDS011;3931;42.260;23.116;2023-05-18T14:53:42;28.40;;;3.90;;
7773;SDS011;3931;42.260;23.116;2023-05-18T14:56:08;9.53;;;3.07;;
7773;SDS011;3931;42.260;23.116;2023-05-18T14:58:34;178.00;;;8.17;;
7773;SDS011;3931;42.260;23.116;2023-05-18T15:01:01;3.97;;;2.23;;
7773;SDS011;3931;42.260;23.116;2023-05-18T15:03:27;15.30;;;2.93;;